createdAt,value
2022-09-01T00:00:50.621Z,100677.28
2022-09-01T00:05:55.168Z,100680.25
2022-09-01T00:10:56.793Z,100685.34
2022-09-01T00:15:59.192Z,100672.13
2022-09-01T00:21:00.945Z,100688.94
2022-09-01T00:26:02.631Z,100684.59
2022-09-01T00:31:06.447Z,100687.94
2022-09-01T00:36:08.303Z,100681.47
2022-09-01T00:41:10.399Z,100679.78
2022-09-01T00:46:20.460Z,100672.03
2022-09-01T00:51:24.439Z,100675.47
2022-09-01T00:56:26.551Z,100683.53
2022-09-01T01:01:28.587Z,100672.31
2022-09-01T01:06:32.259Z,100676.88
2022-09-01T01:11:33.933Z,100665.00
2022-09-01T01:16:35.998Z,100666.00
2022-09-01T01:22:02.533Z,100666.44
2022-09-01T01:27:05.278Z,100668.91
2022-09-01T01:32:13.372Z,100663.47
2022-09-01T01:37:15.243Z,100668.31
2022-09-01T01:42:16.849Z,100660.84
2022-09-01T01:47:20.324Z,100668.03
2022-09-01T01:52:26.221Z,100664.44
2022-09-01T01:57:32.029Z,100666.00
2022-09-01T02:02:33.690Z,100668.41
2022-09-01T02:07:35.424Z,100661.09
2022-09-01T02:12:37.869Z,100657.13
2022-09-01T02:17:39.866Z,100650.94
2022-09-01T02:22:44.322Z,100656.09
2022-09-01T02:27:49.469Z,100649.25
2022-09-01T02:32:51.117Z,100651.66
2022-09-01T02:37:58.295Z,100649.94
2022-09-01T02:43:00.912Z,100652.66
2022-09-01T02:48:02.816Z,100651.97
2022-09-01T02:53:09.826Z,100651.38
2022-09-01T02:58:14.185Z,100656.69
2022-09-01T03:03:19.695Z,100653.97
2022-09-01T03:08:24.676Z,100654.97
2022-09-01T03:13:27.436Z,100659.41
2022-09-01T03:18:29.074Z,100653.25
2022-09-01T03:23:34.912Z,100650.00
2022-09-01T03:28:37.823Z,100654.00
2022-09-01T03:33:39.567Z,100655.16
2022-09-01T03:38:44.094Z,100662.31
2022-09-01T03:43:48.466Z,100664.34
2022-09-01T03:48:53.083Z,100659.88
2022-09-01T03:53:55.178Z,100662.31
2022-09-01T03:58:59.913Z,100663.19
2022-09-01T04:04:01.758Z,100664.63
2022-09-01T04:09:03.619Z,100677.78
2022-09-01T04:14:06.408Z,100671.78
2022-09-01T04:19:20.304Z,100675.25
2022-09-01T04:24:25.095Z,100655.28
2022-09-01T04:29:29.892Z,100669.31
2022-09-01T04:34:41.732Z,100662.03
2022-09-01T04:39:55.607Z,100663.44
2022-09-01T04:45:02.022Z,100663.88
2022-09-01T04:50:17.528Z,100671.22
2022-09-01T04:55:19.678Z,100666.03
2022-09-01T05:00:25.152Z,100671.19
2022-09-01T05:05:27.804Z,100672.63
2022-09-01T05:10:30.318Z,100680.09
2022-09-01T05:15:32.746Z,100670.63
2022-09-01T05:20:38.313Z,100670.63
2022-09-01T05:25:44.640Z,100678.22
2022-09-01T05:30:48.414Z,100674.88
2022-09-01T05:36:02.112Z,100674.88
2022-09-01T05:41:08.627Z,100677.16
2022-09-01T05:46:10.244Z,100680.09
2022-09-01T05:51:40.364Z,100681.78
2022-09-01T05:56:44.037Z,100693.25
2022-09-01T06:01:50.190Z,100696.28
2022-09-01T06:07:05.620Z,100697.56
2022-09-01T06:12:18.419Z,100696.41
2022-09-01T06:17:24.869Z,100699.38
2022-09-01T06:22:28.459Z,100697.88
2022-09-01T06:27:30.302Z,100693.84
2022-09-01T06:32:33.776Z,100703.84
2022-09-01T06:37:35.368Z,100708.31
2022-09-01T06:42:37.884Z,100708.69
2022-09-01T06:47:39.566Z,100720.69
2022-09-01T06:58:08.328Z,100723.00
2022-09-01T07:03:14.547Z,100714.44
2022-09-01T07:08:22.171Z,100723.31
2022-09-01T07:13:25.493Z,100727.47
2022-09-01T07:18:29.248Z,100727.91
2022-09-01T07:23:46.210Z,100730.88
2022-09-01T07:29:01.052Z,100729.22
2022-09-01T07:44:50.406Z,100741.00
2022-09-01T07:50:12.362Z,100743.94
2022-09-01T07:55:16.793Z,100746.28
2022-09-01T08:00:18.487Z,100738.41
2022-09-01T08:05:26.442Z,100735.34
2022-09-01T08:10:28.612Z,100738.47
2022-09-01T08:20:52.016Z,100736.25
2022-09-01T08:25:54.427Z,100744.38
2022-09-01T08:30:56.381Z,100746.91
2022-09-01T08:35:58.081Z,100738.53
2022-09-01T08:41:01.033Z,100740.25
2022-09-01T08:46:14.139Z,100743.31
2022-09-01T08:51:54.122Z,100750.03
2022-09-01T08:57:00.976Z,100732.94
2022-09-01T09:02:34.169Z,100741.66
2022-09-01T09:08:06.485Z,100741.28
2022-09-01T09:13:40.814Z,100739.06
2022-09-01T09:18:55.799Z,100743.34
2022-09-01T09:24:21.578Z,100741.66
2022-09-01T09:29:25.101Z,100735.81
2022-09-01T09:34:33.656Z,100735.88
2022-09-01T09:39:35.125Z,100745.91
2022-09-01T09:44:57.681Z,100728.44
2022-09-01T09:50:31.884Z,100734.03
2022-09-01T09:55:33.552Z,100721.47
2022-09-01T10:00:36.205Z,100719.34
2022-09-01T10:05:38.063Z,100726.94
2022-09-01T10:10:57.557Z,100721.44
2022-09-01T10:16:03.724Z,100714.59
2022-09-01T10:21:24.164Z,100707.97
2022-09-01T10:26:33.895Z,100720.69
2022-09-01T10:31:37.065Z,100715.59
2022-09-01T10:36:42.084Z,100713.13
2022-09-01T10:42:00.682Z,100723.47
2022-09-01T10:47:16.469Z,100721.97
2022-09-01T10:52:53.845Z,100720.41
2022-09-01T11:03:56.185Z,100715.84
2022-09-01T11:09:06.711Z,100714.41
2022-09-01T11:14:23.676Z,100713.03
2022-09-01T11:19:50.184Z,100718.47
2022-09-01T11:25:12.039Z,100713.91
2022-09-01T11:30:18.282Z,100706.66
2022-09-01T11:35:22.799Z,100708.34
2022-09-01T11:40:29.636Z,100716.69
2022-09-01T11:45:44.775Z,100712.06
2022-09-01T11:50:59.184Z,100693.19
2022-09-01T11:56:18.151Z,100698.31
2022-09-01T12:01:23.324Z,100697.72
2022-09-01T12:06:29.650Z,100688.41
2022-09-01T12:11:33.705Z,100696.97
2022-09-01T12:16:37.965Z,100685.66
2022-09-01T12:21:43.996Z,100682.34
2022-09-01T12:26:54.647Z,100675.16
2022-09-01T12:31:56.895Z,100676.66
2022-09-01T12:37:07.686Z,100673.66
2022-09-01T12:42:20.669Z,100674.25
2022-09-01T12:47:34.210Z,100663.84
2022-09-01T12:52:48.551Z,100663.19
2022-09-01T12:57:53.504Z,100689.00
2022-09-01T13:03:21.665Z,100673.72
2022-09-01T13:08:31.548Z,100668.09
2022-09-01T13:13:35.437Z,100666.69
2022-09-01T13:23:58.834Z,100674.66
2022-09-01T13:29:00.987Z,100669.09
2022-09-01T13:34:10.765Z,100667.38
2022-09-01T13:39:24.321Z,100668.25
2022-09-01T13:44:25.961Z,100661.50
2022-09-01T13:50:04.646Z,100663.41
2022-09-01T13:54:49.113Z,100667.75
2022-09-01T13:59:51.179Z,100673.25
2022-09-01T14:04:52.984Z,100669.88
2022-09-01T14:09:55.148Z,100667.47
2022-09-01T14:15:15.942Z,100665.13
2022-09-01T14:20:24.876Z,100651.78
2022-09-01T14:25:26.807Z,100645.88
2022-09-01T14:30:31.614Z,100649.56
2022-09-01T14:35:34.288Z,100653.06
2022-09-01T14:40:38.111Z,100644.13
2022-09-01T14:45:41.045Z,100646.41
2022-09-01T14:50:46.297Z,100646.91
2022-09-01T14:55:49.596Z,100644.66
2022-09-01T15:01:00.420Z,100640.03
2022-09-01T15:06:13.119Z,100637.34
2022-09-01T15:11:18.267Z,100632.00
2022-09-01T15:16:23.174Z,100640.47
2022-09-01T15:21:32.144Z,100632.06
2022-09-01T15:26:35.246Z,100640.75
2022-09-01T15:31:36.891Z,100637.13
2022-09-01T15:36:40.967Z,100620.41
2022-09-01T15:41:44.204Z,100632.63
2022-09-01T15:46:45.949Z,100642.94
2022-09-01T15:51:47.605Z,100639.53
2022-09-01T15:56:49.828Z,100633.03
2022-09-01T16:01:53.302Z,100634.56
2022-09-01T16:06:56.710Z,100624.44
2022-09-01T16:11:58.418Z,100621.69
2022-09-01T16:17:21.492Z,100629.03
2022-09-01T16:22:32.487Z,100627.34
2022-09-01T16:27:39.054Z,100619.09
2022-09-01T16:32:45.417Z,100616.91
2022-09-01T16:38:15.188Z,100619.44
2022-09-01T16:43:34.723Z,100625.94
2022-09-01T16:48:54.813Z,100628.53
2022-09-01T16:54:10.949Z,100627.16
2022-09-01T16:59:12.555Z,100625.41
2022-09-01T17:04:28.894Z,100627.47
2022-09-01T17:09:34.947Z,100623.69
2022-09-01T17:14:48.351Z,100639.75
2022-09-01T17:19:52.718Z,100631.53
2022-09-01T17:30:07.278Z,100637.09
2022-09-01T17:35:36.865Z,100650.25
2022-09-01T17:41:16.089Z,100658.59
2022-09-01T17:46:34.376Z,100667.13
2022-09-01T17:51:49.326Z,100682.19
2022-09-01T17:57:11.187Z,100693.03
2022-09-01T18:02:29.180Z,100682.28
2022-09-01T18:08:18.593Z,100701.13
2022-09-01T18:13:52.889Z,100696.59
2022-09-01T18:19:02.528Z,100700.59
2022-09-01T18:24:15.700Z,100709.41
2022-09-01T18:29:17.896Z,100706.59
2022-09-01T18:34:26.885Z,100708.63
2022-09-01T18:39:40.799Z,100708.91
2022-09-01T18:45:11.232Z,100707.94
2022-09-01T18:50:25.981Z,100715.41
2022-09-01T18:55:50.311Z,100721.03
2022-09-01T19:01:13.757Z,100720.50
2022-09-01T19:06:18.161Z,100715.03
2022-09-01T19:11:22.459Z,100714.31
2022-09-01T19:16:45.398Z,100724.84
2022-09-01T19:21:51.835Z,100709.78
2022-09-01T19:27:08.074Z,100724.06
2022-09-01T19:32:18.217Z,100717.50
2022-09-01T19:37:20.176Z,100717.56
2022-09-01T19:42:55.157Z,100721.78
2022-09-01T19:48:08.659Z,100722.53
2022-09-01T19:53:15.009Z,100712.25
2022-09-01T19:58:25.071Z,100723.16
2022-09-01T20:03:33.875Z,100729.94
2022-09-01T20:08:44.238Z,100733.22
2022-09-01T20:13:58.156Z,100736.69
2022-09-01T20:19:16.067Z,100729.09
2022-09-01T20:24:34.367Z,100729.00
2022-09-01T20:29:51.468Z,100730.59
2022-09-01T20:34:58.424Z,100739.38
2022-09-01T20:40:06.594Z,100743.97
2022-09-01T20:45:23.000Z,100741.72
2022-09-01T20:50:50.776Z,100744.56
2022-09-01T20:55:57.052Z,100744.56
2022-09-01T21:01:15.546Z,100738.84
2022-09-01T21:06:50.659Z,100752.63
2022-09-01T21:12:06.196Z,100747.03
2022-09-01T21:17:15.514Z,100748.91
2022-09-01T21:22:22.231Z,100745.03
2022-09-01T21:27:36.983Z,100754.34
2022-09-01T21:32:39.743Z,100752.09
2022-09-01T21:37:41.659Z,100752.38
2022-09-01T21:43:05.891Z,100743.50
2022-09-01T21:48:08.125Z,100738.31
2022-09-01T21:53:10.389Z,100747.19
2022-09-01T21:58:12.215Z,100737.13
2022-09-01T22:03:14.058Z,100741.16
2022-09-01T22:08:17.215Z,100740.47
2022-09-01T22:13:22.828Z,100743.31
2022-09-01T22:18:24.489Z,100738.91
2022-09-01T22:23:26.077Z,100744.94
2022-09-01T22:28:28.246Z,100738.34
2022-09-01T22:33:30.843Z,100734.19
2022-09-01T22:38:32.541Z,100726.84
2022-09-01T22:43:34.244Z,100727.13
2022-09-01T22:48:36.095Z,100726.69
2022-09-01T22:53:40.661Z,100722.56
2022-09-01T22:58:42.546Z,100730.28
2022-09-01T23:03:45.063Z,100731.19
2022-09-01T23:08:47.376Z,100719.56
2022-09-01T23:13:49.032Z,100713.94
2022-09-01T23:18:51.734Z,100717.13
2022-09-01T23:23:58.554Z,100712.25
2022-09-01T23:29:01.107Z,100718.09
2022-09-01T23:34:06.028Z,100718.38
2022-09-01T23:39:07.874Z,100718.84
2022-09-01T23:44:11.631Z,100717.81
2022-09-01T23:49:15.460Z,100708.22
2022-09-01T23:54:17.100Z,100708.78
2022-09-01T23:59:22.883Z,100707.09
